sensor_id;sensor_type;location;lat;lon;timestamp;P1;durP1;ratioP1;P2;durP2;ratioP2
13171;SDS011;6651;53.200;10.432;2023-05-29T00:01:31;5.32;;;3.28;;
13171;SDS011;6651;53.200;10.432;2023-05-29T00:03:57;5.80;;;3.00;;
13171;SDS011;6651;53.200;10.432;2023-05-29T00:06:23;5.47;;;3.17;;
13171;SDS011;6651;53.200;10.432;2023-05-29T00:08:50;4.32;;;2.90;;
13171;SDS011;6651;53.200;10.432;2023-05-29T00:11:16;4.75;;;3.22;;
13171;SDS011;6651;53.200;10.432;2023-05-29T00:13:42;4.45;;;2.90;;
13171;SDS011;6651;53.200;10.432;2023-05-29T00:16:08;5.90;;;3.15;;
13171;SDS011;6651;53.200;10.432;2023-05-29T00:18:34;5.93;;;3.17;;
13171;SDS011;6651;53.200;10.432;2023-05-29T00:21:00;6.00;;;3.08;;
13171;SDS011;6651;53.200;10.432;2023-05-29T00:23:26;4.47;;;2.92;;
13171;SDS011;6651;53.200;10.432;2023-05-29T00:25:52;4.72;;;3.08;;
13171;SDS011;6651;53.200;10.432;2023-05-29T00:28:18;4.97;;;3.13;;
13171;SDS011;6651;53.200;10.432;2023-05-29T00:30:45;5.10;;;2.90;;
13171;SDS011;6651;53.200;10.432;2023-05-29T00:33:11;3.83;;;2.97;;
13171;SDS011;6651;53.200;10.432;2023-05-29T00:35:37;5.85;;;2.80;;
13171;SDS011;6651;53.200;10.432;2023-05-29T00:38:03;5.13;;;3.13;;
13171;SDS011;6651;53.200;10.432;2023-05-29T00:40:30;4.95;;;2.92;;
13171;SDS011;6651;53.200;10.432;2023-05-29T00:42:56;5.55;;;3.20;;
13171;SDS011;6651;53.200;10.432;2023-05-29T00:45:21;5.43;;;2.88;;
13171;SDS011;6651;53.200;10.432;2023-05-29T00:47:48;6.70;;;3.38;;
13171;SDS011;6651;53.200;10.432;2023-05-29T00:50:14;5.43;;;3.20;;
13171;SDS011;6651;53.200;10.432;2023-05-29T00:52:40;7.05;;;3.20;;
13171;SDS011;6651;53.200;10.432;2023-05-29T00:55:07;7.35;;;3.20;;
13171;SDS011;6651;53.200;10.432;2023-05-29T00:57:34;5.22;;;3.08;;
13171;SDS011;6651;53.200;10.432;2023-05-29T01:00:02;7.38;;;3.40;;
13171;SDS011;6651;53.200;10.432;2023-05-29T01:02:30;6.97;;;3.50;;
13171;SDS011;6651;53.200;10.432;2023-05-29T01:04:56;5.18;;;3.47;;
13171;SDS011;6651;53.200;10.432;2023-05-29T01:07:23;6.97;;;3.70;;
13171;SDS011;6651;53.200;10.432;2023-05-29T01:09:49;8.55;;;3.38;;
13171;SDS011;6651;53.200;10.432;2023-05-29T01:12:33;7.20;;;3.28;;
13171;SDS011;6651;53.200;10.432;2023-05-29T01:20:20;7.38;;;3.22;;
13171;SDS011;6651;53.200;10.432;2023-05-29T01:23:06;6.78;;;3.50;;
13171;SDS011;6651;53.200;10.432;2023-05-29T01:25:39;6.32;;;2.97;;
13171;SDS011;6651;53.200;10.432;2023-05-29T01:28:07;7.13;;;3.25;;
13171;SDS011;6651;53.200;10.432;2023-05-29T01:30:35;6.13;;;3.05;;
13171;SDS011;6651;53.200;10.432;2023-05-29T01:33:02;8.02;;;3.40;;
13171;SDS011;6651;53.200;10.432;2023-05-29T01:35:29;8.63;;;3.22;;
13171;SDS011;6651;53.200;10.432;2023-05-29T01:37:55;8.13;;;3.53;;
13171;SDS011;6651;53.200;10.432;2023-05-29T01:40:21;7.65;;;2.92;;
13171;SDS011;6651;53.200;10.432;2023-05-29T01:42:47;9.05;;;3.38;;
13171;SDS011;6651;53.200;10.432;2023-05-29T01:45:13;11.80;;;3.75;;
13171;SDS011;6651;53.200;10.432;2023-05-29T01:47:41;8.15;;;3.10;;
13171;SDS011;6651;53.200;10.432;2023-05-29T01:50:08;9.13;;;3.55;;
13171;SDS011;6651;53.200;10.432;2023-05-29T01:52:34;9.68;;;3.50;;
13171;SDS011;6651;53.200;10.432;2023-05-29T01:55:00;8.27;;;3.42;;
13171;SDS011;6651;53.200;10.432;2023-05-29T01:57:26;10.98;;;3.60;;
13171;SDS011;6651;53.200;10.432;2023-05-29T01:59:53;9.00;;;3.15;;
13171;SDS011;6651;53.200;10.432;2023-05-29T02:02:21;8.60;;;3.10;;
13171;SDS011;6651;53.200;10.432;2023-05-29T02:04:48;8.15;;;2.97;;
13171;SDS011;6651;53.200;10.432;2023-05-29T02:07:14;7.15;;;2.92;;
13171;SDS011;6651;53.200;10.432;2023-05-29T02:09:40;6.88;;;2.97;;
13171;SDS011;6651;53.200;10.432;2023-05-29T02:12:06;8.68;;;2.88;;
13171;SDS011;6651;53.200;10.432;2023-05-29T02:14:33;9.15;;;2.97;;
13171;SDS011;6651;53.200;10.432;2023-05-29T02:16:59;7.68;;;2.80;;
13171;SDS011;6651;53.200;10.432;2023-05-29T02:19:26;7.47;;;2.90;;
13171;SDS011;6651;53.200;10.432;2023-05-29T02:21:52;9.30;;;3.13;;
13171;SDS011;6651;53.200;10.432;2023-05-29T02:24:18;8.63;;;3.20;;
13171;SDS011;6651;53.200;10.432;2023-05-29T02:26:45;6.80;;;2.70;;
13171;SDS011;6651;53.200;10.432;2023-05-29T02:29:12;7.72;;;2.80;;
13171;SDS011;6651;53.200;10.432;2023-05-29T02:31:38;6.97;;;3.13;;
13171;SDS011;6651;53.200;10.432;2023-05-29T02:34:04;8.68;;;3.08;;
13171;SDS011;6651;53.200;10.432;2023-05-29T02:36:30;6.32;;;2.50;;
13171;SDS011;6651;53.200;10.432;2023-05-29T02:38:56;6.60;;;3.05;;
13171;SDS011;6651;53.200;10.432;2023-05-29T02:41:22;7.63;;;2.97;;
13171;SDS011;6651;53.200;10.432;2023-05-29T02:43:48;5.97;;;2.58;;
13171;SDS011;6651;53.200;10.432;2023-05-29T02:46:14;7.32;;;2.85;;
13171;SDS011;6651;53.200;10.432;2023-05-29T02:48:40;7.05;;;2.97;;
13171;SDS011;6651;53.200;10.432;2023-05-29T02:51:06;6.18;;;2.58;;
13171;SDS011;6651;53.200;10.432;2023-05-29T02:53:32;5.65;;;2.42;;
13171;SDS011;6651;53.200;10.432;2023-05-29T02:55:58;6.55;;;2.88;;
13171;SDS011;6651;53.200;10.432;2023-05-29T02:58:24;6.85;;;2.90;;
13171;SDS011;6651;53.200;10.432;2023-05-29T03:00:50;5.82;;;2.80;;
13171;SDS011;6651;53.200;10.432;2023-05-29T03:03:17;7.82;;;3.30;;
13171;SDS011;6651;53.200;10.432;2023-05-29T03:05:43;6.70;;;2.78;;
13171;SDS011;6651;53.200;10.432;2023-05-29T03:08:10;9.25;;;2.90;;
13171;SDS011;6651;53.200;10.432;2023-05-29T03:10:36;9.95;;;3.38;;
13171;SDS011;6651;53.200;10.432;2023-05-29T03:13:02;8.27;;;2.88;;
13171;SDS011;6651;53.200;10.432;2023-05-29T03:15:28;8.13;;;3.22;;
13171;SDS011;6651;53.200;10.432;2023-05-29T03:17:54;9.68;;;3.10;;
13171;SDS011;6651;53.200;10.432;2023-05-29T03:20:20;11.90;;;3.28;;
13171;SDS011;6651;53.200;10.432;2023-05-29T03:22:46;12.32;;;3.50;;
13171;SDS011;6651;53.200;10.432;2023-05-29T03:25:12;9.30;;;3.17;;
13171;SDS011;6651;53.200;10.432;2023-05-29T03:27:38;9.52;;;3.60;;
13171;SDS011;6651;53.200;10.432;2023-05-29T03:30:04;10.55;;;3.63;;
13171;SDS011;6651;53.200;10.432;2023-05-29T03:32:31;10.20;;;3.15;;
13171;SDS011;6651;53.200;10.432;2023-05-29T03:34:57;11.70;;;3.22;;
13171;SDS011;6651;53.200;10.432;2023-05-29T03:37:23;10.40;;;3.20;;
13171;SDS011;6651;53.200;10.432;2023-05-29T03:39:49;11.55;;;3.25;;
13171;SDS011;6651;53.200;10.432;2023-05-29T03:42:15;10.10;;;3.42;;
13171;SDS011;6651;53.200;10.432;2023-05-29T03:44:41;11.25;;;3.38;;
13171;SDS011;6651;53.200;10.432;2023-05-29T03:47:07;10.88;;;3.45;;
13171;SDS011;6651;53.200;10.432;2023-05-29T03:49:34;11.07;;;3.50;;
13171;SDS011;6651;53.200;10.432;2023-05-29T03:52:00;9.98;;;3.22;;
13171;SDS011;6651;53.200;10.432;2023-05-29T03:54:26;14.45;;;3.80;;
13171;SDS011;6651;53.200;10.432;2023-05-29T03:56:52;11.57;;;3.63;;
13171;SDS011;6651;53.200;10.432;2023-05-29T03:59:18;10.07;;;3.58;;
13171;SDS011;6651;53.200;10.432;2023-05-29T04:01:44;11.55;;;3.88;;
13171;SDS011;6651;53.200;10.432;2023-05-29T04:04:10;13.73;;;3.45;;
13171;SDS011;6651;53.200;10.432;2023-05-29T04:06:36;12.05;;;3.60;;
13171;SDS011;6651;53.200;10.432;2023-05-29T04:09:04;9.27;;;3.13;;
13171;SDS011;6651;53.200;10.432;2023-05-29T04:11:31;11.25;;;3.60;;
13171;SDS011;6651;53.200;10.432;2023-05-29T04:13:59;11.38;;;3.75;;
13171;SDS011;6651;53.200;10.432;2023-05-29T04:16:25;11.77;;;3.47;;
13171;SDS011;6651;53.200;10.432;2023-05-29T04:18:51;13.95;;;3.67;;
13171;SDS011;6651;53.200;10.432;2023-05-29T04:21:17;12.75;;;4.07;;
13171;SDS011;6651;53.200;10.432;2023-05-29T04:23:43;13.70;;;3.70;;
13171;SDS011;6651;53.200;10.432;2023-05-29T04:26:09;11.25;;;3.70;;
13171;SDS011;6651;53.200;10.432;2023-05-29T04:28:35;12.13;;;3.70;;
13171;SDS011;6651;53.200;10.432;2023-05-29T04:31:02;11.77;;;3.60;;
13171;SDS011;6651;53.200;10.432;2023-05-29T04:33:28;11.90;;;3.83;;
13171;SDS011;6651;53.200;10.432;2023-05-29T04:35:54;12.55;;;4.40;;
13171;SDS011;6651;53.200;10.432;2023-05-29T04:38:20;14.07;;;3.88;;
13171;SDS011;6651;53.200;10.432;2023-05-29T04:40:50;11.43;;;3.50;;
13171;SDS011;6651;53.200;10.432;2023-05-29T04:43:16;15.10;;;3.50;;
13171;SDS011;6651;53.200;10.432;2023-05-29T04:45:42;9.90;;;3.67;;
13171;SDS011;6651;53.200;10.432;2023-05-29T04:48:08;13.75;;;3.88;;
13171;SDS011;6651;53.200;10.432;2023-05-29T04:50:34;12.00;;;4.05;;
13171;SDS011;6651;53.200;10.432;2023-05-29T04:53:01;12.93;;;3.70;;
13171;SDS011;6651;53.200;10.432;2023-05-29T04:55:27;14.70;;;3.78;;
13171;SDS011;6651;53.200;10.432;2023-05-29T04:57:53;11.32;;;3.53;;
13171;SDS011;6651;53.200;10.432;2023-05-29T05:00:19;12.75;;;3.40;;
13171;SDS011;6651;53.200;10.432;2023-05-29T05:02:45;14.02;;;3.67;;
13171;SDS011;6651;53.200;10.432;2023-05-29T05:05:12;9.52;;;3.50;;
13171;SDS011;6651;53.200;10.432;2023-05-29T05:07:38;14.57;;;3.85;;
13171;SDS011;6651;53.200;10.432;2023-05-29T05:10:04;10.77;;;3.67;;
13171;SDS011;6651;53.200;10.432;2023-05-29T05:12:31;12.88;;;3.67;;
13171;SDS011;6651;53.200;10.432;2023-05-29T05:14:57;11.02;;;3.90;;
13171;SDS011;6651;53.200;10.432;2023-05-29T05:17:23;11.18;;;3.40;;
13171;SDS011;6651;53.200;10.432;2023-05-29T05:19:49;11.77;;;4.13;;
13171;SDS011;6651;53.200;10.432;2023-05-29T05:22:17;13.23;;;3.95;;
13171;SDS011;6651;53.200;10.432;2023-05-29T05:24:43;12.30;;;3.70;;
13171;SDS011;6651;53.200;10.432;2023-05-29T05:27:09;10.85;;;3.45;;
13171;SDS011;6651;53.200;10.432;2023-05-29T05:29:35;11.90;;;4.10;;
13171;SDS011;6651;53.200;10.432;2023-05-29T05:32:01;11.23;;;3.63;;
13171;SDS011;6651;53.200;10.432;2023-05-29T05:34:27;15.07;;;4.15;;
13171;SDS011;6651;53.200;10.432;2023-05-29T05:36:53;15.50;;;4.18;;
13171;SDS011;6651;53.200;10.432;2023-05-29T05:39:19;14.35;;;4.55;;
13171;SDS011;6651;53.200;10.432;2023-05-29T05:41:45;14.10;;;4.38;;
13171;SDS011;6651;53.200;10.432;2023-05-29T05:44:11;14.30;;;4.10;;
13171;SDS011;6651;53.200;10.432;2023-05-29T05:46:37;15.45;;;4.40;;
13171;SDS011;6651;53.200;10.432;2023-05-29T05:49:03;17.45;;;3.95;;
13171;SDS011;6651;53.200;10.432;2023-05-29T05:51:29;14.50;;;4.25;;
13171;SDS011;6651;53.200;10.432;2023-05-29T05:53:56;11.45;;;3.70;;
13171;SDS011;6651;53.200;10.432;2023-05-29T05:56:22;17.17;;;4.53;;
13171;SDS011;6651;53.200;10.432;2023-05-29T05:58:48;13.63;;;4.20;;
13171;SDS011;6651;53.200;10.432;2023-05-29T06:01:15;14.75;;;3.92;;
13171;SDS011;6651;53.200;10.432;2023-05-29T06:03:41;15.98;;;4.03;;
13171;SDS011;6651;53.200;10.432;2023-05-29T06:06:07;9.88;;;3.65;;
13171;SDS011;6651;53.200;10.432;2023-05-29T06:08:38;16.48;;;4.22;;
13171;SDS011;6651;53.200;10.432;2023-05-29T06:11:06;14.82;;;3.97;;
13171;SDS011;6651;53.200;10.432;2023-05-29T06:13:32;13.77;;;3.80;;
13171;SDS011;6651;53.200;10.432;2023-05-29T06:15:58;16.48;;;4.32;;
13171;SDS011;6651;53.200;10.432;2023-05-29T06:18:24;15.70;;;4.50;;
13171;SDS011;6651;53.200;10.432;2023-05-29T06:20:50;14.45;;;4.10;;
13171;SDS011;6651;53.200;10.432;2023-05-29T06:23:16;12.43;;;4.03;;
13171;SDS011;6651;53.200;10.432;2023-05-29T06:25:42;13.38;;;4.32;;
13171;SDS011;6651;53.200;10.432;2023-05-29T06:28:08;15.13;;;3.72;;
13171;SDS011;6651;53.200;10.432;2023-05-29T06:30:34;12.82;;;3.75;;
13171;SDS011;6651;53.200;10.432;2023-05-29T06:33:00;14.13;;;4.30;;
13171;SDS011;6651;53.200;10.432;2023-05-29T06:35:27;11.27;;;3.75;;
13171;SDS011;6651;53.200;10.432;2023-05-29T06:37:53;13.75;;;3.80;;
13171;SDS011;6651;53.200;10.432;2023-05-29T06:40:19;16.15;;;4.13;;
13171;SDS011;6651;53.200;10.432;2023-05-29T06:42:45;16.45;;;4.60;;
13171;SDS011;6651;53.200;10.432;2023-05-29T06:45:11;16.77;;;3.80;;
13171;SDS011;6651;53.200;10.432;2023-05-29T06:47:41;16.85;;;4.05;;
13171;SDS011;6651;53.200;10.432;2023-05-29T06:50:11;13.05;;;4.10;;
13171;SDS011;6651;53.200;10.432;2023-05-29T06:52:37;15.82;;;3.92;;
13171;SDS011;6651;53.200;10.432;2023-05-29T06:55:03;11.48;;;3.13;;
13171;SDS011;6651;53.200;10.432;2023-05-29T06:57:29;10.20;;;3.60;;
13171;SDS011;6651;53.200;10.432;2023-05-29T06:59:55;15.00;;;4.07;;
13171;SDS011;6651;53.200;10.432;2023-05-29T07:02:21;13.00;;;3.90;;
13171;SDS011;6651;53.200;10.432;2023-05-29T07:04:47;14.13;;;4.25;;
13171;SDS011;6651;53.200;10.432;2023-05-29T07:07:13;13.00;;;3.70;;
13171;SDS011;6651;53.200;10.432;2023-05-29T07:09:39;16.25;;;3.95;;
13171;SDS011;6651;53.200;10.432;2023-05-29T07:12:05;15.15;;;3.95;;
13171;SDS011;6651;53.200;10.432;2023-05-29T07:14:31;13.38;;;3.65;;
13171;SDS011;6651;53.200;10.432;2023-05-29T07:16:58;12.43;;;3.70;;
13171;SDS011;6651;53.200;10.432;2023-05-29T07:19:26;12.63;;;3.97;;
13171;SDS011;6651;53.200;10.432;2023-05-29T07:21:53;12.40;;;4.18;;
13171;SDS011;6651;53.200;10.432;2023-05-29T07:24:19;13.70;;;4.35;;
13171;SDS011;6651;53.200;10.432;2023-05-29T07:26:45;16.02;;;3.85;;
13171;SDS011;6651;53.200;10.432;2023-05-29T07:29:11;13.45;;;3.80;;
13171;SDS011;6651;53.200;10.432;2023-05-29T07:31:38;15.43;;;3.97;;
13171;SDS011;6651;53.200;10.432;2023-05-29T07:34:05;13.52;;;3.85;;
13171;SDS011;6651;53.200;10.432;2023-05-29T07:36:31;12.20;;;4.05;;
13171;SDS011;6651;53.200;10.432;2023-05-29T07:38:57;11.40;;;3.97;;
13171;SDS011;6651;53.200;10.432;2023-05-29T07:41:23;9.82;;;3.30;;
13171;SDS011;6651;53.200;10.432;2023-05-29T07:43:51;12.15;;;3.75;;
13171;SDS011;6651;53.200;10.432;2023-05-29T07:46:17;15.48;;;3.72;;
13171;SDS011;6651;53.200;10.432;2023-05-29T07:48:43;12.50;;;3.88;;
13171;SDS011;6651;53.200;10.432;2023-05-29T07:51:11;13.88;;;4.15;;
13171;SDS011;6651;53.200;10.432;2023-05-29T07:53:37;10.95;;;3.47;;
13171;SDS011;6651;53.200;10.432;2023-05-29T07:56:03;10.85;;;3.85;;
13171;SDS011;6651;53.200;10.432;2023-05-29T07:58:30;10.88;;;3.85;;
13171;SDS011;6651;53.200;10.432;2023-05-29T08:00:56;12.38;;;3.80;;
13171;SDS011;6651;53.200;10.432;2023-05-29T08:03:24;12.35;;;3.80;;
13171;SDS011;6651;53.200;10.432;2023-05-29T08:05:50;14.02;;;3.78;;
13171;SDS011;6651;53.200;10.432;2023-05-29T08:08:16;10.18;;;3.30;;
13171;SDS011;6651;53.200;10.432;2023-05-29T08:10:43;12.80;;;3.88;;
13171;SDS011;6651;53.200;10.432;2023-05-29T08:13:10;10.55;;;3.53;;
13171;SDS011;6651;53.200;10.432;2023-05-29T08:15:36;13.18;;;3.80;;
13171;SDS011;6651;53.200;10.432;2023-05-29T08:18:02;12.02;;;3.83;;
13171;SDS011;6651;53.200;10.432;2023-05-29T08:20:28;11.48;;;4.00;;
13171;SDS011;6651;53.200;10.432;2023-05-29T08:22:54;11.90;;;3.75;;
13171;SDS011;6651;53.200;10.432;2023-05-29T08:25:20;9.35;;;3.35;;
13171;SDS011;6651;53.200;10.432;2023-05-29T08:27:46;12.07;;;3.53;;
13171;SDS011;6651;53.200;10.432;2023-05-29T08:30:12;12.07;;;4.10;;
13171;SDS011;6651;53.200;10.432;2023-05-29T08:32:38;12.40;;;4.00;;
13171;SDS011;6651;53.200;10.432;2023-05-29T08:35:04;11.65;;;3.67;;
13171;SDS011;6651;53.200;10.432;2023-05-29T08:37:30;10.82;;;3.97;;
13171;SDS011;6651;53.200;10.432;2023-05-29T08:39:56;10.55;;;3.50;;
13171;SDS011;6651;53.200;10.432;2023-05-29T08:42:32;12.00;;;3.83;;
13171;SDS011;6651;53.200;10.432;2023-05-29T08:45:01;12.30;;;4.07;;
13171;SDS011;6651;53.200;10.432;2023-05-29T08:47:28;11.38;;;3.70;;
13171;SDS011;6651;53.200;10.432;2023-05-29T08:49:56;12.88;;;3.67;;
13171;SDS011;6651;53.200;10.432;2023-05-29T08:52:23;10.20;;;3.72;;
13171;SDS011;6651;53.200;10.432;2023-05-29T08:54:50;11.63;;;3.45;;
13171;SDS011;6651;53.200;10.432;2023-05-29T08:57:16;10.98;;;3.53;;
13171;SDS011;6651;53.200;10.432;2023-05-29T08:59:43;9.82;;;3.28;;
13171;SDS011;6651;53.200;10.432;2023-05-29T09:02:10;12.52;;;4.07;;
13171;SDS011;6651;53.200;10.432;2023-05-29T09:04:37;11.60;;;3.80;;
13171;SDS011;6651;53.200;10.432;2023-05-29T09:07:04;9.80;;;3.22;;
13171;SDS011;6651;53.200;10.432;2023-05-29T09:09:33;11.35;;;3.75;;
13171;SDS011;6651;53.200;10.432;2023-05-29T09:11:59;9.93;;;3.30;;
13171;SDS011;6651;53.200;10.432;2023-05-29T09:16:59;9.70;;;3.67;;
13171;SDS011;6651;53.200;10.432;2023-05-29T09:19:25;8.95;;;3.30;;
13171;SDS011;6651;53.200;10.432;2023-05-29T09:21:51;8.32;;;3.28;;
13171;SDS011;6651;53.200;10.432;2023-05-29T09:24:17;8.75;;;3.10;;
13171;SDS011;6651;53.200;10.432;2023-05-29T09:26:48;11.02;;;3.40;;
13171;SDS011;6651;53.200;10.432;2023-05-29T09:29:15;9.70;;;3.30;;
13171;SDS011;6651;53.200;10.432;2023-05-29T09:31:47;9.90;;;3.22;;
13171;SDS011;6651;53.200;10.432;2023-05-29T09:34:14;10.38;;;3.15;;
13171;SDS011;6651;53.200;10.432;2023-05-29T09:36:40;9.30;;;3.53;;
13171;SDS011;6651;53.200;10.432;2023-05-29T09:39:06;9.25;;;3.13;;
13171;SDS011;6651;53.200;10.432;2023-05-29T09:41:45;10.82;;;3.38;;
13171;SDS011;6651;53.200;10.432;2023-05-29T09:44:13;8.77;;;3.80;;
13171;SDS011;6651;53.200;10.432;2023-05-29T09:46:40;9.60;;;3.65;;
13171;SDS011;6651;53.200;10.432;2023-05-29T09:49:11;11.68;;;3.97;;
13171;SDS011;6651;53.200;10.432;2023-05-29T09:51:38;13.15;;;4.05;;
13171;SDS011;6651;53.200;10.432;2023-05-29T09:54:14;9.05;;;3.58;;
13171;SDS011;6651;53.200;10.432;2023-05-29T09:56:41;11.02;;;3.80;;
13171;SDS011;6651;53.200;10.432;2023-05-29T09:59:09;9.90;;;3.55;;
13171;SDS011;6651;53.200;10.432;2023-05-29T10:01:36;7.88;;;3.30;;
13171;SDS011;6651;53.200;10.432;2023-05-29T10:04:04;10.93;;;3.63;;
13171;SDS011;6651;53.200;10.432;2023-05-29T10:06:30;10.40;;;3.40;;
13171;SDS011;6651;53.200;10.432;2023-05-29T10:08:56;8.65;;;3.58;;
13171;SDS011;6651;53.200;10.432;2023-05-29T10:11:23;9.93;;;3.55;;
13171;SDS011;6651;53.200;10.432;2023-05-29T10:13:51;10.85;;;3.75;;
13171;SDS011;6651;53.200;10.432;2023-05-29T10:16:20;12.60;;;3.85;;
13171;SDS011;6651;53.200;10.432;2023-05-29T10:18:50;8.43;;;3.67;;
13171;SDS011;6651;53.200;10.432;2023-05-29T10:21:20;8.63;;;3.67;;
13171;SDS011;6651;53.200;10.432;2023-05-29T10:23:50;11.00;;;3.70;;
13171;SDS011;6651;53.200;10.432;2023-05-29T10:26:20;8.57;;;3.80;;
13171;SDS011;6651;53.200;10.432;2023-05-29T10:28:49;10.85;;;3.67;;
13171;SDS011;6651;53.200;10.432;2023-05-29T10:31:18;10.50;;;3.38;;
13171;SDS011;6651;53.200;10.432;2023-05-29T10:36:35;10.25;;;3.92;;
13171;SDS011;6651;53.200;10.432;2023-05-29T10:39:02;9.90;;;3.65;;
13171;SDS011;6651;53.200;10.432;2023-05-29T10:41:29;10.25;;;3.75;;
13171;SDS011;6651;53.200;10.432;2023-05-29T10:43:57;10.85;;;3.63;;
13171;SDS011;6651;53.200;10.432;2023-05-29T10:49:18;11.80;;;4.13;;
13171;SDS011;6651;53.200;10.432;2023-05-29T10:51:44;8.73;;;3.08;;
13171;SDS011;6651;53.200;10.432;2023-05-29T10:54:10;8.68;;;3.90;;
13171;SDS011;6651;53.200;10.432;2023-05-29T10:56:36;8.60;;;3.88;;
13171;SDS011;6651;53.200;10.432;2023-05-29T10:59:03;9.48;;;3.67;;
13171;SDS011;6651;53.200;10.432;2023-05-29T11:01:29;11.18;;;3.53;;
13171;SDS011;6651;53.200;10.432;2023-05-29T11:06:40;9.90;;;3.50;;
13171;SDS011;6651;53.200;10.432;2023-05-29T11:09:25;9.63;;;3.50;;
13171;SDS011;6651;53.200;10.432;2023-05-29T11:14:46;10.13;;;3.35;;
13171;SDS011;6651;53.200;10.432;2023-05-29T11:17:31;7.85;;;3.15;;
13171;SDS011;6651;53.200;10.432;2023-05-29T11:20:00;9.73;;;3.35;;
13171;SDS011;6651;53.200;10.432;2023-05-29T11:22:34;8.45;;;3.42;;
13171;SDS011;6651;53.200;10.432;2023-05-29T11:25:07;7.97;;;3.30;;
13171;SDS011;6651;53.200;10.432;2023-05-29T11:27:33;8.43;;;3.58;;
13171;SDS011;6651;53.200;10.432;2023-05-29T11:29:59;7.53;;;3.30;;
13171;SDS011;6651;53.200;10.432;2023-05-29T11:32:25;9.68;;;3.45;;
13171;SDS011;6651;53.200;10.432;2023-05-29T11:34:53;9.68;;;3.58;;
13171;SDS011;6651;53.200;10.432;2023-05-29T11:37:21;9.77;;;3.80;;
13171;SDS011;6651;53.200;10.432;2023-05-29T11:39:48;7.93;;;3.33;;
13171;SDS011;6651;53.200;10.432;2023-05-29T11:42:14;9.70;;;3.80;;
13171;SDS011;6651;53.200;10.432;2023-05-29T11:44:41;11.63;;;3.50;;
13171;SDS011;6651;53.200;10.432;2023-05-29T11:47:07;9.10;;;3.15;;
13171;SDS011;6651;53.200;10.432;2023-05-29T11:49:36;7.68;;;2.92;;
13171;SDS011;6651;53.200;10.432;2023-05-29T11:54:35;8.45;;;3.60;;
13171;SDS011;6651;53.200;10.432;2023-05-29T11:57:01;7.47;;;3.15;;
13171;SDS011;6651;53.200;10.432;2023-05-29T11:59:30;9.38;;;3.22;;
13171;SDS011;6651;53.200;10.432;2023-05-29T12:01:56;9.70;;;3.28;;
13171;SDS011;6651;53.200;10.432;2023-05-29T12:04:22;9.23;;;3.40;;
13171;SDS011;6651;53.200;10.432;2023-05-29T12:06:48;9.65;;;3.70;;
13171;SDS011;6651;53.200;10.432;2023-05-29T12:09:27;10.20;;;3.60;;
13171;SDS011;6651;53.200;10.432;2023-05-29T12:12:03;9.60;;;3.42;;
13171;SDS011;6651;53.200;10.432;2023-05-29T12:14:29;8.65;;;3.13;;
13171;SDS011;6651;53.200;10.432;2023-05-29T12:16:55;8.65;;;3.00;;
13171;SDS011;6651;53.200;10.432;2023-05-29T12:19:21;9.40;;;3.20;;
13171;SDS011;6651;53.200;10.432;2023-05-29T12:21:48;7.18;;;3.08;;
13171;SDS011;6651;53.200;10.432;2023-05-29T12:24:14;8.15;;;3.13;;
13171;SDS011;6651;53.200;10.432;2023-05-29T12:26:41;9.02;;;2.92;;
13171;SDS011;6651;53.200;10.432;2023-05-29T12:29:08;7.53;;;2.88;;
13171;SDS011;6651;53.200;10.432;2023-05-29T12:31:34;7.72;;;3.25;;
13171;SDS011;6651;53.200;10.432;2023-05-29T12:34:02;8.70;;;2.92;;
13171;SDS011;6651;53.200;10.432;2023-05-29T12:36:28;7.70;;;3.10;;
13171;SDS011;6651;53.200;10.432;2023-05-29T12:38:55;7.30;;;3.08;;
13171;SDS011;6651;53.200;10.432;2023-05-29T12:41:30;9.02;;;3.20;;
13171;SDS011;6651;53.200;10.432;2023-05-29T12:44:00;6.60;;;3.10;;
13171;SDS011;6651;53.200;10.432;2023-05-29T12:46:26;7.60;;;3.00;;
13171;SDS011;6651;53.200;10.432;2023-05-29T12:48:56;7.63;;;3.20;;
13171;SDS011;6651;53.200;10.432;2023-05-29T12:51:22;6.32;;;2.70;;
13171;SDS011;6651;53.200;10.432;2023-05-29T12:53:49;8.25;;;3.05;;
13171;SDS011;6651;53.200;10.432;2023-05-29T12:56:15;8.25;;;3.13;;
13171;SDS011;6651;53.200;10.432;2023-05-29T12:58:41;7.50;;;3.17;;
13171;SDS011;6651;53.200;10.432;2023-05-29T13:01:12;7.03;;;2.97;;
13171;SDS011;6651;53.200;10.432;2023-05-29T13:03:41;9.63;;;3.33;;
13171;SDS011;6651;53.200;10.432;2023-05-29T13:06:07;6.38;;;2.90;;
13171;SDS011;6651;53.200;10.432;2023-05-29T13:08:34;6.20;;;2.70;;
13171;SDS011;6651;53.200;10.432;2023-05-29T13:11:00;6.30;;;2.83;;
13171;SDS011;6651;53.200;10.432;2023-05-29T13:13:26;8.40;;;2.83;;
13171;SDS011;6651;53.200;10.432;2023-05-29T13:15:52;8.82;;;2.90;;
13171;SDS011;6651;53.200;10.432;2023-05-29T13:18:18;6.80;;;2.83;;
13171;SDS011;6651;53.200;10.432;2023-05-29T13:20:44;7.53;;;2.83;;
13171;SDS011;6651;53.200;10.432;2023-05-29T13:23:10;7.80;;;3.00;;
13171;SDS011;6651;53.200;10.432;2023-05-29T13:25:36;6.25;;;2.85;;
13171;SDS011;6651;53.200;10.432;2023-05-29T13:28:02;7.97;;;2.70;;
13171;SDS011;6651;53.200;10.432;2023-05-29T13:30:28;6.97;;;2.92;;
13171;SDS011;6651;53.200;10.432;2023-05-29T13:32:54;8.00;;;3.22;;
13171;SDS011;6651;53.200;10.432;2023-05-29T13:35:20;6.28;;;2.70;;
13171;SDS011;6651;53.200;10.432;2023-05-29T13:37:46;7.97;;;3.35;;
13171;SDS011;6651;53.200;10.432;2023-05-29T13:40:12;6.38;;;2.70;;
13171;SDS011;6651;53.200;10.432;2023-05-29T13:42:39;6.53;;;2.72;;
13171;SDS011;6651;53.200;10.432;2023-05-29T13:45:05;6.10;;;2.80;;
13171;SDS011;6651;53.200;10.432;2023-05-29T13:47:32;6.05;;;2.70;;
13171;SDS011;6651;53.200;10.432;2023-05-29T13:49:58;6.47;;;3.00;;
13171;SDS011;6651;53.200;10.432;2023-05-29T13:52:25;8.40;;;3.10;;
13171;SDS011;6651;53.200;10.432;2023-05-29T13:54:51;6.50;;;2.80;;
13171;SDS011;6651;53.200;10.432;2023-05-29T13:57:17;5.95;;;2.80;;
13171;SDS011;6651;53.200;10.432;2023-05-29T13:59:43;6.53;;;2.75;;
13171;SDS011;6651;53.200;10.432;2023-05-29T14:02:09;8.30;;;2.92;;
13171;SDS011;6651;53.200;10.432;2023-05-29T14:04:35;8.40;;;3.10;;
13171;SDS011;6651;53.200;10.432;2023-05-29T14:07:03;7.28;;;3.10;;
13171;SDS011;6651;53.200;10.432;2023-05-29T14:09:30;7.50;;;2.88;;
13171;SDS011;6651;53.200;10.432;2023-05-29T14:11:57;8.00;;;2.95;;
13171;SDS011;6651;53.200;10.432;2023-05-29T14:14:23;8.02;;;3.17;;
13171;SDS011;6651;53.200;10.432;2023-05-29T14:16:50;9.15;;;2.85;;
13171;SDS011;6651;53.200;10.432;2023-05-29T14:19:16;8.07;;;3.40;;
13171;SDS011;6651;53.200;10.432;2023-05-29T14:21:43;7.60;;;3.20;;
13171;SDS011;6651;53.200;10.432;2023-05-29T14:24:09;7.18;;;3.05;;
13171;SDS011;6651;53.200;10.432;2023-05-29T14:26:35;8.25;;;3.03;;
13171;SDS011;6651;53.200;10.432;2023-05-29T14:29:02;6.28;;;2.65;;
13171;SDS011;6651;53.200;10.432;2023-05-29T14:31:28;7.55;;;3.13;;
13171;SDS011;6651;53.200;10.432;2023-05-29T14:33:54;7.25;;;2.92;;
13171;SDS011;6651;53.200;10.432;2023-05-29T14:36:20;6.07;;;2.97;;
13171;SDS011;6651;53.200;10.432;2023-05-29T14:38:46;6.45;;;2.78;;
13171;SDS011;6651;53.200;10.432;2023-05-29T14:41:14;5.90;;;2.78;;
13171;SDS011;6651;53.200;10.432;2023-05-29T14:43:41;7.78;;;3.28;;
13171;SDS011;6651;53.200;10.432;2023-05-29T14:46:07;8.30;;;3.25;;
13171;SDS011;6651;53.200;10.432;2023-05-29T14:48:33;6.60;;;2.92;;
13171;SDS011;6651;53.200;10.432;2023-05-29T14:50:59;6.47;;;3.05;;
13171;SDS011;6651;53.200;10.432;2023-05-29T14:53:26;6.88;;;3.30;;
13171;SDS011;6651;53.200;10.432;2023-05-29T14:55:52;6.50;;;2.85;;
13171;SDS011;6651;53.200;10.432;2023-05-29T14:58:18;7.45;;;3.05;;
13171;SDS011;6651;53.200;10.432;2023-05-29T15:00:44;7.05;;;3.25;;
13171;SDS011;6651;53.200;10.432;2023-05-29T15:03:10;6.43;;;2.97;;